Time;durP1;ratioP1;P1;durP2;ratioP2;P2;SDS_P1;SDS_P2;PMS_P1;PMS_P2;Temp;Humidity;BMP_temperature;BMP_pressure;BME280_temperature;BME280_humidity;BME280_pressure;Samples;Min_cycle;Max_cycle;Signal;HPM_P1;HPM_P2
2023/04/21 00:01:39;;;;;;;15.00;4.30;;;;;;;17.35;41.23;99709.09;108070;1254;71571;-67
2023/04/21 00:04:09;;;;;;;21.20;5.10;;;;;;;17.41;41.16;99706.52;108175;1254;73188;-66
2023/04/21 00:06:40;;;;;;;28.20;5.00;;;;;;;17.29;41.36;99706.84;108010;1254;61663;-65
2023/04/21 00:09:09;;;;;;;16.00;4.80;;;;;;;17.26;41.25;99704.89;108037;1254;61227;-64
2023/04/21 00:11:37;;;;;;;22.00;4.70;;;;;;;17.39;41.01;99707.16;108078;1254;73404;-66
2023/04/21 00:14:05;;;;;;;25.60;4.30;;;;;;;17.66;40.39;99705.38;108094;1254;70338;-66
2023/04/21 00:16:33;;;;;;;14.70;4.60;;;;;;;17.67;40.29;99706.35;108131;1254;72603;-66
2023/04/21 00:19:05;;;;;;;17.90;5.00;;;;;;;17.74;40.22;99708.71;108068;1254;62220;-65
2023/04/21 00:21:34;;;;;;;16.00;4.40;;;;;;;17.80;40.00;99702.41;108070;1254;60371;-67
2023/04/21 00:24:03;;;;;;;14.50;4.70;;;;;;;17.65;40.39;99699.79;108052;1254;73777;-66
2023/04/21 00:26:31;;;;;;;25.20;5.60;;;;;;;17.91;39.97;99700.61;108114;1254;69579;-65
2023/04/21 00:28:59;;;;;;;17.80;5.50;;;;;;;17.82;40.01;99698.59;108053;1254;72979;-67
2023/04/21 00:31:28;;;;;;;17.70;4.60;;;;;;;17.94;39.88;99698.20;108131;1254;61892;-66
2023/04/21 00:33:57;;;;;;;25.20;4.90;;;;;;;17.84;39.96;99696.98;108079;1258;60303;-67
2023/04/21 00:36:27;;;;;;;25.30;5.10;;;;;;;17.75;40.22;99698.52;108064;1254;71714;-66
2023/04/21 00:38:55;;;;;;;13.90;4.20;;;;;;;17.90;39.81;99694.08;108102;1256;71901;-67
2023/04/21 00:41:23;;;;;;;13.20;4.70;;;;;;;17.80;39.77;99699.39;108120;1254;73624;-66
2023/04/21 00:44:05;;;;;;;18.20;5.10;;;;;;;17.82;39.95;99697.88;108031;1256;60298;-67
2023/04/21 00:46:33;;;;;;;19.40;4.60;;;;;;;18.06;39.57;99698.59;108200;1254;59209;-66
2023/04/21 00:49:05;;;;;;;13.40;4.30;;;;;;;18.07;39.40;99696.52;108127;1254;74149;-66
2023/04/21 00:51:34;;;;;;;21.70;4.90;;;;;;;18.30;39.07;99696.42;108156;1254;69801;-66
2023/04/21 00:54:03;;;;;;;17.20;5.10;;;;;;;18.20;39.10;99701.45;108112;1254;73950;-66
2023/04/21 00:56:32;;;;;;;18.70;5.10;;;;;;;18.11;39.27;99702.30;108091;1259;62186;-65
2023/04/21 00:59:02;;;;;;;24.50;5.30;;;;;;;17.57;40.19;99702.73;108016;1255;59799;-66
2023/04/21 01:01:31;;;;;;;18.80;4.80;;;;;;;17.66;40.02;99702.73;108157;1254;72899;-66
2023/04/21 01:04:00;;;;;;;17.60;4.30;;;;;;;17.81;39.62;99699.50;108149;1254;71365;-67
2023/04/21 01:06:32;;;;;;;26.30;4.70;;;;;;;17.88;39.55;99697.26;108151;1254;71778;-66
2023/04/21 01:09:02;;;;;;;13.20;4.50;;;;;;;17.93;39.63;99693.73;108118;1254;60228;-67
2023/04/21 01:11:31;;;;;;;20.10;4.70;;;;;;;17.96;39.54;99688.85;108097;1259;60383;-68
2023/04/21 01:14:00;;;;;;;18.20;4.90;;;;;;;17.54;40.22;99693.84;108062;1254;73602;-67
2023/04/21 01:16:28;;;;;;;20.90;4.50;;;;;;;17.52;40.36;99693.28;108087;1254;70765;-67
2023/04/21 01:18:57;;;;;;;27.30;4.90;;;;;;;17.45;40.41;99694.17;108087;1254;72107;-69
2023/04/21 01:21:27;;;;;;;14.20;4.70;;;;;;;17.41;40.53;99686.44;107997;1259;60312;-67
2023/04/21 01:23:55;;;;;;;19.10;5.30;;;;;;;17.74;40.09;99686.02;108060;1254;61379;-68
2023/04/21 01:26:23;;;;;;;21.90;5.10;;;;;;;17.88;39.82;99681.07;107970;1254;74496;-66
2023/04/21 01:28:51;;;;;;;15.00;4.50;;;;;;;17.60;40.23;99677.84;108044;1254;71200;-67
2023/04/21 01:31:19;;;;;;;14.80;4.90;;;;;;;17.45;40.60;99679.82;107916;1254;73905;-64
2023/04/21 01:33:48;;;;;;;24.10;5.00;;;;;;;17.53;40.33;99679.36;108010;1254;62077;-67
2023/04/21 01:36:16;;;;;;;13.40;4.50;;;;;;;17.70;40.08;99677.63;108056;1254;61206;-66
2023/04/21 01:38:44;;;;;;;30.50;4.70;;;;;;;17.78;39.96;99671.66;108025;1254;74834;-67
2023/04/21 01:41:12;;;;;;;22.10;4.80;;;;;;;17.78;39.99;99667.92;108091;1254;70570;-66
2023/04/21 01:43:40;;;;;;;25.10;4.80;;;;;;;17.80;39.98;99669.22;108022;1254;73479;-66
2023/04/21 01:46:09;;;;;;;21.60;5.70;;;;;;;17.76;40.05;99669.17;108047;1254;61827;-65
2023/04/21 01:48:37;;;;;;;19.30;4.80;;;;;;;17.61;40.31;99668.47;108033;1254;60332;-67
2023/04/21 01:51:06;;;;;;;21.90;4.80;;;;;;;17.62;40.40;99667.02;108077;1254;72782;-66
2023/04/21 01:53:34;;;;;;;25.60;5.00;;;;;;;17.67;40.29;99666.06;108072;1254;71569;-66
2023/04/21 01:56:02;;;;;;;15.30;4.40;;;;;;;17.76;40.07;99663.80;108031;1256;73602;-66
2023/04/21 01:58:32;;;;;;;15.30;4.10;;;;;;;17.76;40.09;99660.09;108080;1254;62501;-67
2023/04/21 02:01:00;;;;;;;11.40;4.20;;;;;;;17.86;39.96;99658.53;107989;1256;60523;-66
2023/04/21 02:03:29;;;;;;;24.50;5.30;;;;;;;17.56;40.36;99656.08;107949;1254;74984;-65
2023/04/21 02:05:58;;;;;;;25.70;4.90;;;;;;;17.17;41.08;99650.73;107897;1260;69126;-66
2023/04/21 02:08:26;;;;;;;20.50;5.30;;;;;;;17.56;40.59;99648.09;107995;1255;72404;-68
2023/04/21 02:10:54;;;;;;;25.40;4.70;;;;;;;17.70;40.26;99646.89;107990;1255;60871;-67
2023/04/21 02:13:23;;;;;;;25.00;4.90;;;;;;;17.88;40.13;99646.46;108015;1256;60476;-67
2023/04/21 02:15:51;;;;;;;15.40;5.60;;;;;;;17.65;40.35;99642.11;107979;1255;74500;-66
2023/04/21 02:18:33;;;;;;;22.30;4.80;;;;;;;17.64;40.48;99643.80;107883;1256;71482;-66
2023/04/21 02:21:01;;;;;;;22.30;5.20;;;;;;;17.72;40.33;99640.36;107957;1257;73290;-67
2023/04/21 02:23:30;;;;;;;25.10;4.70;;;;;;;17.68;40.32;99634.26;107943;1255;62411;-66
2023/04/21 02:25:58;;;;;;;21.30;4.50;;;;;;;17.43;40.81;99632.41;108065;1255;61361;-67
2023/04/21 02:28:26;;;;;;;14.60;4.70;;;;;;;17.40;40.83;99634.88;107970;1256;74484;-66
2023/04/21 02:30:54;;;;;;;16.70;4.20;;;;;;;17.22;41.25;99633.37;107965;1254;71289;-67
2023/04/21 02:33:22;;;;;;;15.10;4.50;;;;;;;17.24;41.27;99632.16;107861;1254;72943;-67
2023/04/21 02:35:51;;;;;;;14.10;4.80;;;;;;;17.23;41.21;99626.74;108064;1254;61855;-67
2023/04/21 02:41:05;;;;;;;18.70;4.40;;;;;;;13.13;49.51;99638.15;104975;1289;600734;-68
2023/04/21 02:43:34;;;;;;;21.80;5.00;;;;;;;14.28;47.19;99630.64;107323;1263;61980;-66
2023/04/21 02:46:08;;;;;;;16.80;4.90;;;;;;;14.52;46.72;99627.91;107450;1264;60657;-66
2023/04/21 02:48:36;;;;;;;18.20;4.30;;;;;;;14.87;46.16;99624.38;107399;1260;73146;-66
2023/04/21 02:51:13;;;;;;;14.40;4.80;;;;;;;14.87;46.09;99620.48;107570;1260;71507;-66
2023/04/21 02:53:42;;;;;;;17.50;4.10;;;;;;;15.16;45.73;99626.79;107311;1259;192466;-65
2023/04/21 02:56:11;;;;;;;16.50;4.30;;;;;;;15.43;45.13;99624.17;107696;1260;60734;-67
2023/04/21 02:58:40;;;;;;;27.40;5.50;;;;;;;15.26;45.27;99623.85;107679;1259;60652;-66
2023/04/21 03:01:10;;;;;;;18.50;4.70;;;;;;;15.52;45.05;99620.23;108205;1254;71347;-67
2023/04/21 03:03:38;;;;;;;23.50;4.20;;;;;;;15.66;44.74;99624.05;108180;1254;70128;-67
2023/04/21 03:06:06;;;;;;;17.70;4.20;;;;;;;15.78;44.69;99625.46;108157;1254;71734;-66
2023/04/21 03:08:35;;;;;;;18.90;4.70;;;;;;;15.87;44.55;99622.16;108109;1254;62419;-67
2023/04/21 03:11:03;;;;;;;14.80;4.70;;;;;;;15.77;44.73;99622.66;108126;1254;61594;-67
2023/04/21 03:13:34;;;;;;;20.90;4.60;;;;;;;15.56;45.19;99620.86;108242;1253;73403;-67
2023/04/21 03:16:02;;;;;;;15.40;4.20;;;;;;;15.56;45.31;99619.94;108162;1254;70593;-68
2023/04/21 03:18:33;;;;;;;15.60;4.30;;;;;;;15.91;44.73;99619.65;108199;1254;73540;-68
2023/04/21 03:21:02;;;;;;;25.90;5.20;;;;;;;15.90;44.79;99618.63;108198;1254;62113;-67
2023/04/21 03:23:30;;;;;;;21.30;4.80;;;;;;;15.89;44.69;99622.08;108107;1254;61275;-68
2023/04/21 03:25:58;;;;;;;29.30;5.40;;;;;;;15.90;44.57;99624.97;108053;1254;71853;-65
2023/04/21 03:28:26;;;;;;;30.70;6.30;;;;;;;15.91;44.44;99621.88;108074;1254;71506;-65
2023/04/21 03:30:54;;;;;;;25.40;4.90;;;;;;;15.89;44.61;99623.83;108048;1253;73571;-66
2023/04/21 03:33:22;;;;;;;16.10;4.50;;;;;;;16.01;44.25;99623.36;108082;1254;61931;-67
2023/04/21 03:35:50;;;;;;;19.50;4.60;;;;;;;16.08;44.11;99622.34;107940;1254;61332;-66
2023/04/21 03:38:18;;;;;;;19.90;4.60;;;;;;;16.09;44.05;99626.73;107953;1256;73780;-66
2023/04/21 03:40:47;;;;;;;22.30;4.90;;;;;;;16.02;44.04;99623.46;108041;1254;71246;-67
2023/04/21 03:43:18;;;;;;;20.60;4.40;;;;;;;15.93;44.26;99624.27;107988;1254;72503;-66
2023/04/21 03:45:46;;;;;;;19.40;4.60;;;;;;;16.04;44.03;99623.64;108113;1254;61342;-68
2023/04/21 03:48:14;;;;;;;26.80;5.00;;;;;;;15.98;44.13;99621.09;108316;1251;60262;-66
2023/04/21 03:50:42;;;;;;;17.00;4.50;;;;;;;15.98;44.19;99623.02;108291;1254;73433;-64
2023/04/21 03:53:13;;;;;;;18.70;4.50;;;;;;;16.24;43.68;99622.50;108228;1254;71606;-64
2023/04/21 03:55:40;;;;;;;24.00;4.50;;;;;;;16.32;43.60;99619.50;108216;1253;71032;-67
2023/04/21 03:58:09;;;;;;;33.20;5.20;;;;;;;16.50;43.41;99623.34;108289;1252;60565;-67
2023/04/21 04:00:37;;;;;;;17.60;4.70;;;;;;;16.62;43.22;99616.50;108286;1253;59089;-68
2023/04/21 04:03:06;;;;;;;35.40;5.70;;;;;;;16.91;42.61;99618.04;108289;1256;73315;-67
2023/04/21 04:05:35;;;;;;;18.30;4.30;;;;;;;16.90;42.61;99620.07;108279;1254;69897;-68
2023/04/21 04:08:03;;;;;;;25.40;4.50;;;;;;;16.71;43.03;99618.17;108219;1251;72620;-67
2023/04/21 04:10:31;;;;;;;24.50;5.00;;;;;;;16.44;43.53;99614.88;108221;1252;59952;-66
2023/04/21 04:13:00;;;;;;;21.30;4.90;;;;;;;16.93;42.73;99614.54;108235;1252;60754;-67
2023/04/21 04:15:28;;;;;;;25.00;4.40;;;;;;;17.24;42.12;99621.33;108234;1254;74147;-67
2023/04/21 04:17:57;;;;;;;15.80;4.00;;;;;;;17.22;42.26;99622.73;108172;1254;70592;-65
2023/04/21 04:20:30;;;;;;;13.80;3.90;;;;;;;17.16;42.22;99628.30;108281;1252;73682;-67
2023/04/21 04:22:59;;;;;;;22.50;4.70;;;;;;;17.34;42.05;99627.13;108225;1252;62210;-66
2023/04/21 04:25:27;;;;;;;28.50;4.90;;;;;;;17.46;41.83;99629.33;108290;1253;61206;-67
2023/04/21 04:27:56;;;;;;;25.30;4.40;;;;;;;17.19;42.11;99633.80;108337;1254;74011;-66
2023/04/21 04:30:26;;;;;;;23.20;4.50;;;;;;;17.21;42.01;99639.15;108286;1253;70491;-68
2023/04/21 04:32:56;;;;;;;26.50;4.50;;;;;;;17.19;42.12;99636.45;108243;1253;72602;-67
2023/04/21 04:35:27;;;;;;;22.30;4.60;;;;;;;17.40;41.97;99639.65;108252;1252;62142;-68
2023/04/21 04:37:56;;;;;;;27.70;4.40;;;;;;;17.39;41.83;99638.89;108217;1252;60221;-68
2023/04/21 04:40:24;;;;;;;22.10;3.90;;;;;;;17.78;41.20;99635.30;108236;1254;73979;-68
2023/04/21 04:42:53;;;;;;;26.90;5.00;;;;;;;18.16;40.32;99636.39;108336;1252;69847;-68
2023/04/21 04:45:22;;;;;;;22.80;4.60;;;;;;;18.17;40.09;99637.17;108282;1253;73580;-66
2023/04/21 04:47:50;;;;;;;17.00;4.70;;;;;;;18.34;39.80;99636.75;108280;1253;59896;-67
2023/04/21 04:50:18;;;;;;;17.10;4.20;;;;;;;18.34;39.55;99636.42;108259;1253;60525;-67
2023/04/21 04:52:47;;;;;;;18.80;4.40;;;;;;;18.43;39.52;99633.56;108247;1253;74526;-69
2023/04/21 04:55:16;;;;;;;16.70;3.80;;;;;;;18.31;39.68;99633.81;108331;1254;70470;-68
2023/04/21 04:57:44;;;;;;;26.70;4.50;;;;;;;18.30;39.68;99630.66;108248;1253;73722;-67
2023/04/21 05:00:13;;;;;;;21.00;4.30;;;;;;;18.76;38.97;99630.67;108150;1253;62327;-67
2023/04/21 05:02:41;;;;;;;24.90;4.10;;;;;;;18.72;38.85;99627.74;108280;1253;61607;-67
2023/04/21 05:05:10;;;;;;;20.20;5.60;;;;;;;18.55;38.83;99632.13;108255;1253;71682;-68
2023/04/21 05:07:39;;;;;;;25.40;4.70;;;;;;;18.45;39.14;99639.31;108167;1253;71595;-67
2023/04/21 05:10:07;;;;;;;18.50;4.50;;;;;;;18.36;39.22;99641.80;108145;1253;71428;-67
2023/04/21 05:12:38;;;;;;;30.00;4.50;;;;;;;18.76;38.74;99639.58;108155;1253;63019;-64
2023/04/21 05:15:07;;;;;;;20.00;4.60;;;;;;;18.91;38.42;99643.34;108192;1254;60065;-68
2023/04/21 05:17:36;;;;;;;14.50;3.90;;;;;;;18.70;38.77;99642.11;108235;1253;73637;-68
2023/04/21 05:20:06;;;;;;;17.50;4.00;;;;;;;18.59;39.06;99647.48;108226;1253;70917;-66
2023/04/21 05:22:37;;;;;;;24.50;4.80;;;;;;;18.51;39.12;99645.60;108239;1254;72346;-67
2023/04/21 05:25:08;;;;;;;27.10;4.20;;;;;;;18.50;39.14;99648.81;108264;1254;61307;-67
2023/04/21 05:27:37;;;;;;;31.20;5.00;;;;;;;18.88;38.72;99644.34;108058;1253;59867;-67
2023/04/21 05:30:06;;;;;;;25.90;4.70;;;;;;;19.29;38.27;99647.60;108222;1253;73190;-67
2023/04/21 05:32:35;;;;;;;20.90;4.40;;;;;;;19.56;37.88;99638.63;108303;1254;70288;-67
2023/04/21 05:35:04;;;;;;;18.90;4.00;;;;;;;19.89;37.32;99637.02;108281;1253;71264;-67
2023/04/21 05:37:35;;;;;;;17.10;4.30;;;;;;;20.16;36.77;99635.48;108285;1253;61228;-69
2023/04/21 05:40:04;;;;;;;26.80;4.70;;;;;;;20.32;36.79;99634.06;108304;1253;59653;-68
2023/04/21 05:42:32;;;;;;;20.00;4.60;;;;;;;20.70;36.22;99634.59;108307;1254;74221;-68
2023/04/21 05:45:00;;;;;;;18.80;4.20;;;;;;;20.91;35.38;99634.71;108247;1254;71341;-68
2023/04/21 05:47:29;;;;;;;23.70;4.20;;;;;;;21.27;34.99;99633.38;108309;1255;72853;-68
2023/04/21 05:49:57;;;;;;;22.60;4.50;;;;;;;21.64;34.43;99626.81;108228;1254;63179;-66
2023/04/21 05:52:25;;;;;;;27.10;5.10;;;;;;;21.82;34.27;99623.40;108308;1256;59676;-68
2023/04/21 05:54:54;;;;;;;18.50;4.10;;;;;;;21.80;33.69;99622.27;108271;1252;73274;-66
2023/04/21 05:57:23;;;;;;;17.90;4.10;;;;;;;21.94;33.59;99625.30;108272;1254;69564;-66
2023/04/21 05:59:51;;;;;;;22.30;4.60;;;;;;;22.13;33.48;99626.21;108368;1256;72917;-67
2023/04/21 06:02:19;;;;;;;19.90;4.30;;;;;;;22.09;33.66;99628.39;108294;1254;61609;-68
2023/04/21 06:04:47;;;;;;;22.60;4.30;;;;;;;22.18;33.49;99622.20;108342;1253;59530;-68
2023/04/21 06:07:17;;;;;;;26.20;5.20;;;;;;;22.31;33.22;99623.01;108266;1253;74211;-67
2023/04/21 06:09:49;;;;;;;22.80;5.00;;;;;;;22.17;33.28;99621.90;108166;1254;70416;-67
2023/04/21 06:12:17;;;;;;;21.50;4.10;;;;;;;21.94;33.48;99618.31;108287;1252;73339;-67
2023/04/21 06:14:48;;;;;;;26.30;4.20;;;;;;;21.98;33.64;99625.49;108240;1253;60184;-68
2023/04/21 06:17:24;;;;;;;28.40;4.10;;;;;;;21.92;33.62;99626.00;108359;1254;61511;-68
2023/04/21 06:19:54;;;;;;;26.10;4.00;;;;;;;21.85;33.87;99626.31;108155;1254;73079;-68
2023/04/21 06:22:24;;;;;;;21.00;4.00;;;;;;;21.95;34.09;99630.20;108311;1253;68508;-68
2023/04/21 06:24:55;;;;;;;;;;;;;;;22.36;33.78;99625.03;108230;1254;72355;-70
2023/04/21 06:27:25;;;;;;;25.50;4.40;;;;;;;22.37;33.53;99627.95;108261;1252;61448;-66
2023/04/21 06:29:54;;;;;;;20.30;4.40;;;;;;;22.61;33.20;99632.48;108227;1253;60873;-68
2023/04/21 06:32:22;;;;;;;19.00;3.90;;;;;;;23.01;32.95;99629.03;108240;1253;72290;-68
2023/04/21 06:34:50;;;;;;;23.80;4.80;;;;;;;23.56;32.46;99630.79;108261;1254;70144;-67
2023/04/21 06:37:19;;;;;;;15.20;3.30;;;;;;;24.14;31.71;99628.80;108255;1254;72792;-67
2023/04/21 06:39:47;;;;;;;26.20;4.30;;;;;;;24.77;30.68;99626.27;108318;1251;60601;-69
2023/04/21 06:42:15;;;;;;;27.10;4.80;;;;;;;25.24;29.76;99627.58;108264;1255;60317;-68
2023/04/21 06:44:43;;;;;;;23.20;3.70;;;;;;;25.67;29.23;99625.36;108230;1255;72422;-68
2023/04/21 06:47:11;;;;;;;16.00;4.00;;;;;;;26.00;28.73;99620.29;108196;1251;71565;-69
2023/04/21 06:49:39;;;;;;;20.70;4.00;;;;;;;26.03;28.09;99623.29;108223;1254;73865;-69
2023/04/21 06:52:07;;;;;;;20.00;4.40;;;;;;;26.12;27.04;99628.38;108249;1254;61230;-68
2023/04/21 06:54:37;;;;;;;30.00;6.80;;;;;;;25.69;27.39;99628.20;108232;1254;60656;-67
2023/04/21 06:57:05;;;;;;;19.90;5.30;;;;;;;25.24;28.27;99628.52;108192;1253;72584;-65
2023/04/21 06:59:33;;;;;;;28.70;4.60;;;;;;;25.31;28.45;99630.24;108234;1253;69794;-67
2023/04/21 07:02:01;;;;;;;20.70;4.30;;;;;;;25.30;27.83;99626.67;108167;1253;73265;-68
2023/04/21 07:04:30;;;;;;;25.30;3.90;;;;;;;25.20;28.14;99628.80;108169;1254;61594;-67
2023/04/21 07:06:59;;;;;;;24.90;4.00;;;;;;;25.24;28.11;99624.49;108301;1253;62325;-69
2023/04/21 07:09:32;;;;;;;21.30;4.50;;;;;;;25.26;27.92;99629.86;108232;1256;74023;-68
2023/04/21 07:12:01;;;;;;;24.00;4.30;;;;;;;24.99;27.94;99624.84;108204;1254;71643;-68
2023/04/21 07:14:30;;;;;;;28.50;4.00;;;;;;;24.86;27.98;99628.58;108219;1254;73886;-69
2023/04/21 07:16:58;;;;;;;26.00;4.00;;;;;;;24.52;27.98;99627.58;108206;1254;61373;-68
2023/04/21 07:19:26;;;;;;;26.00;3.90;;;;;;;24.47;27.69;99628.11;108208;1256;61201;-69
2023/04/21 07:21:54;;;;;;;20.70;4.50;;;;;;;24.25;27.88;99632.53;108203;1254;74971;-69
2023/04/21 07:24:23;;;;;;;24.30;4.20;;;;;;;24.30;27.50;99631.92;108206;1254;69945;-70
2023/04/21 07:26:51;;;;;;;30.10;5.50;;;;;;;24.30;27.46;99632.09;108236;1254;73786;-68
2023/04/21 07:29:19;;;;;;;22.60;4.60;;;;;;;24.22;27.26;99632.64;108238;1254;59130;-67
2023/04/21 07:31:47;;;;;;;24.10;4.20;;;;;;;24.31;27.31;99633.91;108320;1253;60096;-68
2023/04/21 07:34:16;;;;;;;31.60;4.40;;;;;;;24.41;27.04;99628.52;108201;1253;75048;-68
2023/04/21 07:36:43;;;;;;;17.50;3.90;;;;;;;24.58;26.73;99631.32;108236;1253;70903;-68
2023/04/21 07:39:11;;;;;;;18.10;4.40;;;;;;;24.95;26.51;99626.54;108282;1253;72938;-69
2023/04/21 07:41:40;;;;;;;19.80;3.70;;;;;;;25.24;26.39;99628.38;108264;1253;60423;-69
2023/04/21 07:44:07;;;;;;;17.70;3.70;;;;;;;25.43;26.07;99624.30;108276;1253;60366;-68
2023/04/21 07:46:37;;;;;;;21.90;5.60;;;;;;;25.59;25.82;99624.95;108284;1253;74498;-69
2023/04/21 07:49:05;;;;;;;22.10;4.10;;;;;;;25.40;25.70;99624.86;108278;1254;70296;-69
2023/04/21 07:51:35;;;;;;;26.20;3.90;;;;;;;25.45;25.82;99625.73;108261;1254;73506;-71
2023/04/21 07:54:03;;;;;;;20.10;4.10;;;;;;;25.28;26.07;99630.00;108329;1253;60332;-68
2023/04/21 07:56:31;;;;;;;18.30;3.30;;;;;;;25.24;25.75;99628.69;108297;1251;60296;-68
2023/04/21 07:58:59;;;;;;;17.10;3.60;;;;;;;24.98;26.19;99632.52;108288;1251;74698;-68
2023/04/21 08:01:27;;;;;;;16.90;3.60;;;;;;;24.76;26.09;99640.31;108243;1251;71187;-68
2023/04/21 08:03:55;;;;;;;19.40;3.70;;;;;;;24.70;26.06;99638.33;108173;1251;71720;-69
2023/04/21 08:06:23;;;;;;;25.70;4.00;;;;;;;24.44;26.41;99637.59;108202;1251;61345;-69
2023/04/21 08:08:53;;;;;;;17.90;3.80;;;;;;;24.22;26.66;99643.16;108259;1251;60661;-68
2023/04/21 08:11:21;;;;;;;20.70;4.40;;;;;;;24.16;26.57;99645.91;108260;1251;72789;-69
2023/04/21 08:13:50;;;;;;;21.80;4.30;;;;;;;24.32;26.94;99647.71;108236;1251;71525;-67
2023/04/21 08:16:18;;;;;;;19.50;3.30;;;;;;;24.22;26.81;99649.89;108250;1251;72642;-69
2023/04/21 08:18:46;;;;;;;22.00;3.60;;;;;;;24.46;26.82;99646.07;108233;1251;61402;-69
2023/04/21 08:21:15;;;;;;;18.20;4.00;;;;;;;24.59;26.74;99651.57;108240;1251;61314;-69
2023/04/21 08:23:43;;;;;;;27.00;4.00;;;;;;;24.86;26.36;99653.69;108293;1251;72937;-69
2023/04/21 08:26:12;;;;;;;13.70;2.90;;;;;;;24.50;26.65;99651.63;108302;1251;71024;-69
2023/04/21 08:28:40;;;;;;;18.90;3.60;;;;;;;24.51;27.00;99653.00;108272;1251;72022;-70
2023/04/21 08:31:08;;;;;;;21.70;3.50;;;;;;;24.41;27.34;99656.36;108310;1251;61136;-69
2023/04/21 08:33:36;;;;;;;20.40;3.90;;;;;;;24.09;27.41;99662.63;108228;1251;60470;-69
2023/04/21 08:36:17;;;;;;;28.80;4.30;;;;;;;23.95;27.58;99657.19;108270;1255;71898;-68
2023/04/21 08:38:56;;;;;;;18.00;3.60;;;;;;;24.01;27.83;99661.23;108283;1251;71172;-70
2023/04/21 08:41:24;;;;;;;19.60;3.60;;;;;;;23.93;27.96;99661.25;108288;1251;73466;-67
2023/04/21 08:43:53;;;;;;;19.30;3.80;;;;;;;23.86;28.29;99664.96;108296;1251;60444;-70
2023/04/21 08:46:21;;;;;;;18.40;4.10;;;;;;;23.97;28.23;99664.95;108294;1251;60377;-70
2023/04/21 08:48:49;;;;;;;23.40;3.10;;;;;;;24.42;28.05;99660.00;108162;1251;75083;-69
2023/04/21 08:51:23;;;;;;;24.30;4.20;;;;;;;24.87;27.53;99663.33;108207;1251;68873;-68
2023/04/21 08:53:52;;;;;;;20.80;4.00;;;;;;;25.04;27.42;99664.02;108162;1251;73328;-71
2023/04/21 08:56:21;;;;;;;19.50;3.20;;;;;;;25.18;27.38;99663.81;108044;1254;61429;-67
2023/04/21 08:58:49;;;;;;;15.80;3.30;;;;;;;24.99;27.35;99663.10;108189;1254;60397;-68
2023/04/21 09:01:16;;;;;;;15.60;3.20;;;;;;;25.30;27.29;99666.45;108209;1253;74969;-69
2023/04/21 09:03:45;;;;;;;14.80;3.50;;;;;;;25.40;27.18;99664.39;108273;1254;70297;-68
2023/04/21 09:06:14;;;;;;;23.70;3.70;;;;;;;25.28;27.08;99667.23;108214;1254;72186;-69
2023/04/21 09:08:52;;;;;;;20.90;3.70;;;;;;;25.28;27.32;99666.48;108223;1253;60361;-70
2023/04/21 09:11:20;;;;;;;18.90;3.40;;;;;;;25.20;27.46;99675.50;108230;1253;60339;-69
2023/04/21 09:13:48;;;;;;;19.50;4.10;;;;;;;24.94;27.68;99676.20;108211;1252;75182;-69
2023/04/21 09:16:19;;;;;;;18.00;3.60;;;;;;;24.68;28.29;99680.86;108247;1251;71249;-67
2023/04/21 09:18:47;;;;;;;17.80;3.20;;;;;;;24.81;28.37;99680.80;108252;1251;73113;-70
2023/04/21 09:21:16;;;;;;;26.70;3.30;;;;;;;24.24;28.91;99691.02;108267;1251;61912;-68
2023/04/21 09:23:49;;;;;;;14.60;3.80;;;;;;;23.89;29.55;99684.16;108288;1255;61431;-69
2023/04/21 09:26:18;;;;;;;16.90;3.30;;;;;;;23.87;29.61;99697.48;108306;1251;73419;-69
2023/04/21 09:28:47;;;;;;;10.60;3.00;;;;;;;23.77;29.29;99694.69;108324;1251;71639;-69
2023/04/21 09:31:18;;;;;;;17.30;3.20;;;;;;;23.33;29.92;99692.54;108310;1251;73075;-70
2023/04/21 09:33:48;;;;;;;12.90;2.70;;;;;;;23.51;30.06;99693.51;108301;1251;60347;-68
2023/04/21 09:36:21;;;;;;;15.00;3.20;;;;;;;23.64;29.80;99693.82;108297;1251;61054;-70
2023/04/21 09:39:00;;;;;;;15.60;3.10;;;;;;;23.41;30.18;99698.71;108234;1251;75309;-67
2023/04/21 09:41:31;;;;;;;20.40;3.40;;;;;;;23.66;29.91;99696.81;108255;1251;69677;-68
2023/04/21 09:44:00;;;;;;;13.40;2.90;;;;;;;23.85;29.69;99698.02;108235;1251;71962;-69
2023/04/21 09:46:31;;;;;;;18.00;3.50;;;;;;;23.21;30.09;99694.73;108253;1251;61574;-68
2023/04/21 09:49:00;;;;;;;15.30;2.90;;;;;;;23.56;30.03;99693.67;108314;1251;61379;-67
2023/04/21 09:51:30;;;;;;;19.90;3.60;;;;;;;23.69;30.00;99698.09;108248;1251;75077;-68
2023/04/21 09:54:19;;;;;;;8.10;3.00;;;;;;;23.73;30.02;99706.40;108286;1251;71153;-68
2023/04/21 09:56:58;;;;;;;23.80;3.70;;;;;;;23.79;29.98;99705.08;108232;1254;73358;-68
2023/04/21 09:59:36;;;;;;;18.80;4.10;;;;;;;23.54;30.15;99706.47;108286;1254;61396;-67
2023/04/21 10:02:05;;;;;;;14.40;3.30;;;;;;;23.27;30.43;99710.35;108154;1259;61716;-69
2023/04/21 10:04:35;;;;;;;15.80;3.30;;;;;;;23.04;30.88;99712.35;108322;1254;73843;-69
2023/04/21 10:07:04;;;;;;;14.00;3.30;;;;;;;23.27;30.60;99711.19;108331;1254;69585;-69
2023/04/21 10:09:44;;;;;;;19.10;3.90;;;;;;;23.37;30.37;99715.26;108061;1254;73511;-69
2023/04/21 10:12:12;;;;;;;17.30;3.80;;;;;;;23.12;30.46;99720.54;108291;1252;60447;-69
2023/04/21 10:14:41;;;;;;;21.90;3.40;;;;;;;23.06;30.70;99718.22;108057;1258;60617;-69
2023/04/21 10:17:09;;;;;;;17.40;3.50;;;;;;;22.80;30.79;99722.05;108214;1254;75198;-69
2023/04/21 10:19:48;;;;;;;15.80;3.20;;;;;;;22.96;30.96;99720.40;108211;1252;71241;-67
2023/04/21 10:22:26;;;;;;;20.80;3.50;;;;;;;23.13;30.77;99708.64;108242;1254;72795;-69
2023/04/21 10:24:55;;;;;;;17.30;3.50;;;;;;;23.34;30.65;99703.95;108248;1254;60531;-69
2023/04/21 10:27:34;;;;;;;24.70;3.40;;;;;;;23.29;30.29;99703.48;108357;1253;60421;-69
2023/04/21 10:30:22;;;;;;;19.60;3.40;;;;;;;23.49;29.79;99691.31;108281;1254;74744;-68
2023/04/21 10:33:01;;;;;;;17.90;4.30;;;;;;;23.81;29.21;99699.52;108293;1254;69962;-69
2023/04/21 10:35:59;;;;;;;14.40;3.70;;;;;;;23.70;29.26;99696.76;108285;1254;73529;-68
2023/04/21 10:38:40;;;;;;;21.20;3.60;;;;;;;23.76;29.27;99699.61;108233;1253;61511;-68
2023/04/21 10:41:28;;;;;;;23.00;3.90;;;;;;;24.13;28.71;99694.83;108222;1254;60354;-68
2023/04/21 10:44:06;;;;;;;19.80;3.40;;;;;;;24.53;28.41;99694.24;108278;1256;74061;-69
2023/04/21 10:46:35;;;;;;;14.80;3.30;;;;;;;24.62;28.16;99696.77;108057;1255;68722;-70
2023/04/21 10:49:11;;;;;;;18.50;3.80;;;;;;;24.54;28.10;99701.44;108260;1254;72349;-69
2023/04/21 10:51:58;;;;;;;26.40;4.10;;;;;;;24.49;28.15;99702.88;108211;1254;59125;-69
2023/04/21 10:54:35;;;;;;;17.30;3.40;;;;;;;23.94;28.31;99705.15;108252;1254;60716;-69
2023/04/21 10:57:05;;;;;;;21.50;3.90;;;;;;;23.73;28.82;99701.36;108198;1256;74398;-69
2023/04/21 10:59:34;;;;;;;17.40;3.40;;;;;;;24.13;28.37;99697.34;108264;1253;71740;-69
2023/04/21 11:02:05;;;;;;;28.90;4.00;;;;;;;24.42;28.44;99691.78;108083;1254;71346;-68
2023/04/21 11:04:33;;;;;;;22.80;4.40;;;;;;;24.66;28.36;99684.34;108265;1253;60302;-69
2023/04/21 11:07:13;;;;;;;21.80;4.00;;;;;;;24.92;28.44;99683.08;108222;1252;60292;-69
2023/04/21 11:09:42;;;;;;;23.30;3.40;;;;;;;25.47;27.43;99678.94;108268;1254;75114;-69
2023/04/21 11:12:12;;;;;;;18.50;3.30;;;;;;;25.36;26.43;99675.37;108173;1254;69549;-68
2023/04/21 11:14:42;;;;;;;17.50;3.50;;;;;;;25.75;26.10;99671.05;108294;1254;73835;-69
2023/04/21 11:17:11;;;;;;;18.20;3.50;;;;;;;25.75;26.00;99665.85;108297;1253;59528;-69
2023/04/21 11:19:40;;;;;;;25.20;4.40;;;;;;;25.77;26.18;99664.85;108246;1254;60410;-67
2023/04/21 11:22:08;;;;;;;27.00;3.70;;;;;;;25.74;26.04;99667.35;108240;1254;73672;-70
2023/04/21 11:24:36;;;;;;;26.40;3.60;;;;;;;25.96;25.79;99663.02;108265;1254;70034;-69
2023/04/21 11:27:07;;;;;;;22.40;3.20;;;;;;;26.36;25.48;99661.19;108221;1256;72097;-67
2023/04/21 11:29:35;;;;;;;23.00;3.70;;;;;;;26.49;25.54;99659.39;108300;1253;61237;-69
2023/04/21 11:32:08;;;;;;;23.40;3.60;;;;;;;26.47;25.05;99661.18;108266;1256;60748;-69